sensor_id;sensor_type;location;lat;lon;timestamp;temperature;humidity
36444;DHT22;24692;45.642;13.806;2022-09-06T00:01:41;21.60;99.90
36444;DHT22;24692;45.642;13.806;2022-09-06T00:04:07;21.50;99.90
36444;DHT22;24692;45.642;13.806;2022-09-06T00:06:34;21.40;99.90
36444;DHT22;24692;45.642;13.806;2022-09-06T00:09:01;21.50;99.90
36444;DHT22;24692;45.642;13.806;2022-09-06T00:11:27;21.40;99.90
36444;DHT22;24692;45.642;13.806;2022-09-06T00:13:53;21.50;99.90
36444;DHT22;24692;45.642;13.806;2022-09-06T00:16:21;21.40;99.90
36444;DHT22;24692;45.642;13.806;2022-09-06T00:18:48;21.40;99.90
36444;DHT22;24692;45.642;13.806;2022-09-06T00:21:23;21.40;99.90
36444;DHT22;24692;45.642;13.806;2022-09-06T00:23:49;21.40;99.90
36444;DHT22;24692;45.642;13.806;2022-09-06T00:26:15;21.40;99.90
36444;DHT22;24692;45.642;13.806;2022-09-06T00:28:41;21.40;99.90
36444;DHT22;24692;45.642;13.806;2022-09-06T00:31:12;21.30;99.90
36444;DHT22;24692;45.642;13.806;2022-09-06T00:33:38;21.40;99.90
36444;DHT22;24692;45.642;13.806;2022-09-06T00:36:04;21.30;99.90
36444;DHT22;24692;45.642;13.806;2022-09-06T00:38:30;21.40;99.90
36444;DHT22;24692;45.642;13.806;2022-09-06T00:40:56;21.40;99.90
36444;DHT22;24692;45.642;13.806;2022-09-06T00:43:23;21.30;99.90
36444;DHT22;24692;45.642;13.806;2022-09-06T00:45:48;21.30;99.90
36444;DHT22;24692;45.642;13.806;2022-09-06T00:48:16;21.20;99.90
36444;DHT22;24692;45.642;13.806;2022-09-06T00:50:43;21.10;99.90
36444;DHT22;24692;45.642;13.806;2022-09-06T00:53:11;21.20;99.90
36444;DHT22;24692;45.642;13.806;2022-09-06T00:55:37;21.20;99.90
36444;DHT22;24692;45.642;13.806;2022-09-06T00:58:03;21.20;99.90
36444;DHT22;24692;45.642;13.806;2022-09-06T01:00:29;21.20;99.90
36444;DHT22;24692;45.642;13.806;2022-09-06T01:02:54;21.20;99.90
36444;DHT22;24692;45.642;13.806;2022-09-06T01:05:24;21.20;99.90
36444;DHT22;24692;45.642;13.806;2022-09-06T01:13:26;21.20;99.90
36444;DHT22;24692;45.642;13.806;2022-09-06T01:21:15;21.10;99.90
36444;DHT22;24692;45.642;13.806;2022-09-06T01:29:32;21.10;99.90
36444;DHT22;24692;45.642;13.806;2022-09-06T01:35:26;21.00;99.90
36444;DHT22;24692;45.642;13.806;2022-09-06T01:37:25;21.10;99.90
36444;DHT22;24692;45.642;13.806;2022-09-06T01:39:52;21.10;99.90
36444;DHT22;24692;45.642;13.806;2022-09-06T01:42:29;21.10;99.90
36444;DHT22;24692;45.642;13.806;2022-09-06T01:44:59;21.10;99.90
36444;DHT22;24692;45.642;13.806;2022-09-06T02:03:41;21.00;99.90
36444;DHT22;24692;45.642;13.806;2022-09-06T02:06:16;20.80;99.90
36444;DHT22;24692;45.642;13.806;2022-09-06T02:09:09;20.80;99.90
36444;DHT22;24692;45.642;13.806;2022-09-06T02:11:56;20.90;99.90
36444;DHT22;24692;45.642;13.806;2022-09-06T02:16:57;20.90;99.90
36444;DHT22;24692;45.642;13.806;2022-09-06T02:19:32;20.80;99.90
36444;DHT22;24692;45.642;13.806;2022-09-06T02:22:02;20.80;99.90
36444;DHT22;24692;45.642;13.806;2022-09-06T02:24:30;20.90;99.90
36444;DHT22;24692;45.642;13.806;2022-09-06T02:26:57;20.90;99.90
36444;DHT22;24692;45.642;13.806;2022-09-06T02:29:23;20.90;99.90
36444;DHT22;24692;45.642;13.806;2022-09-06T02:31:58;20.90;99.90
36444;DHT22;24692;45.642;13.806;2022-09-06T02:34:24;20.90;99.90
36444;DHT22;24692;45.642;13.806;2022-09-06T02:36:50;20.90;99.90
36444;DHT22;24692;45.642;13.806;2022-09-06T02:39:16;20.80;99.90
36444;DHT22;24692;45.642;13.806;2022-09-06T02:41:43;20.80;99.90
36444;DHT22;24692;45.642;13.806;2022-09-06T02:44:10;20.80;99.90
36444;DHT22;24692;45.642;13.806;2022-09-06T02:46:36;20.80;99.90
36444;DHT22;24692;45.642;13.806;2022-09-06T02:49:02;20.80;99.90
36444;DHT22;24692;45.642;13.806;2022-09-06T02:51:28;20.70;99.90
36444;DHT22;24692;45.642;13.806;2022-09-06T02:53:54;20.60;99.90
36444;DHT22;24692;45.642;13.806;2022-09-06T02:56:19;20.60;99.90
36444;DHT22;24692;45.642;13.806;2022-09-06T02:58:45;20.60;99.90
36444;DHT22;24692;45.642;13.806;2022-09-06T03:01:11;20.50;99.90
36444;DHT22;24692;45.642;13.806;2022-09-06T03:03:36;20.50;99.90
36444;DHT22;24692;45.642;13.806;2022-09-06T03:06:02;20.40;99.90
36444;DHT22;24692;45.642;13.806;2022-09-06T03:08:28;20.40;99.90
36444;DHT22;24692;45.642;13.806;2022-09-06T03:10:58;20.40;99.90
36444;DHT22;24692;45.642;13.806;2022-09-06T03:13:24;20.30;99.90
36444;DHT22;24692;45.642;13.806;2022-09-06T03:15:52;20.30;99.90
36444;DHT22;24692;45.642;13.806;2022-09-06T03:18:18;20.30;99.90
36444;DHT22;24692;45.642;13.806;2022-09-06T03:20:44;20.30;99.90
36444;DHT22;24692;45.642;13.806;2022-09-06T03:23:10;20.30;99.90
36444;DHT22;24692;45.642;13.806;2022-09-06T03:25:35;20.30;99.90
36444;DHT22;24692;45.642;13.806;2022-09-06T03:28:02;20.30;99.90
36444;DHT22;24692;45.642;13.806;2022-09-06T03:30:28;20.30;99.90
36444;DHT22;24692;45.642;13.806;2022-09-06T03:32:53;20.30;99.90
36444;DHT22;24692;45.642;13.806;2022-09-06T03:35:19;20.30;99.90
36444;DHT22;24692;45.642;13.806;2022-09-06T03:37:45;20.30;99.90
36444;DHT22;24692;45.642;13.806;2022-09-06T03:40:10;20.20;99.90
36444;DHT22;24692;45.642;13.806;2022-09-06T03:42:36;20.20;99.90
36444;DHT22;24692;45.642;13.806;2022-09-06T03:45:02;20.20;99.90
36444;DHT22;24692;45.642;13.806;2022-09-06T03:47:27;20.10;99.90
36444;DHT22;24692;45.642;13.806;2022-09-06T03:49:53;20.10;99.90
36444;DHT22;24692;45.642;13.806;2022-09-06T03:52:19;20.10;99.90
36444;DHT22;24692;45.642;13.806;2022-09-06T03:54:44;20.00;99.90
36444;DHT22;24692;45.642;13.806;2022-09-06T03:57:10;20.00;99.90
36444;DHT22;24692;45.642;13.806;2022-09-06T03:59:36;20.00;99.90
36444;DHT22;24692;45.642;13.806;2022-09-06T04:02:01;20.10;99.90
36444;DHT22;24692;45.642;13.806;2022-09-06T04:04:27;20.10;99.90
36444;DHT22;24692;45.642;13.806;2022-09-06T04:06:53;20.10;99.90
36444;DHT22;24692;45.642;13.806;2022-09-06T04:09:18;20.10;99.90
36444;DHT22;24692;45.642;13.806;2022-09-06T04:11:44;20.10;99.90
36444;DHT22;24692;45.642;13.806;2022-09-06T04:14:10;20.10;99.90
36444;DHT22;24692;45.642;13.806;2022-09-06T04:16:35;20.20;99.90
36444;DHT22;24692;45.642;13.806;2022-09-06T04:19:01;20.20;99.90
36444;DHT22;24692;45.642;13.806;2022-09-06T04:21:29;20.10;99.90
36444;DHT22;24692;45.642;13.806;2022-09-06T04:23:55;20.10;99.90
36444;DHT22;24692;45.642;13.806;2022-09-06T04:26:21;20.00;99.90
36444;DHT22;24692;45.642;13.806;2022-09-06T04:28:46;20.00;99.90
36444;DHT22;24692;45.642;13.806;2022-09-06T04:31:12;19.90;99.90
36444;DHT22;24692;45.642;13.806;2022-09-06T04:33:38;19.90;99.90
36444;DHT22;24692;45.642;13.806;2022-09-06T04:36:07;19.80;99.90
36444;DHT22;24692;45.642;13.806;2022-09-06T04:38:38;19.80;99.90
36444;DHT22;24692;45.642;13.806;2022-09-06T04:41:05;19.80;99.90
36444;DHT22;24692;45.642;13.806;2022-09-06T04:43:31;19.80;99.90
36444;DHT22;24692;45.642;13.806;2022-09-06T04:46:12;19.80;99.90
36444;DHT22;24692;45.642;13.806;2022-09-06T04:48:40;19.70;99.90
36444;DHT22;24692;45.642;13.806;2022-09-06T04:51:05;19.80;99.90
36444;DHT22;24692;45.642;13.806;2022-09-06T04:53:31;19.90;99.90
36444;DHT22;24692;45.642;13.806;2022-09-06T04:55:57;20.00;99.90
36444;DHT22;24692;45.642;13.806;2022-09-06T04:58:23;20.00;99.90
36444;DHT22;24692;45.642;13.806;2022-09-06T05:00:49;20.00;99.90
36444;DHT22;24692;45.642;13.806;2022-09-06T05:03:15;20.10;99.90
36444;DHT22;24692;45.642;13.806;2022-09-06T05:05:41;20.10;99.90
36444;DHT22;24692;45.642;13.806;2022-09-06T05:08:07;20.20;99.90
36444;DHT22;24692;45.642;13.806;2022-09-06T05:10:32;20.20;99.90
36444;DHT22;24692;45.642;13.806;2022-09-06T05:12:58;20.30;99.90
36444;DHT22;24692;45.642;13.806;2022-09-06T05:15:24;20.30;99.90
36444;DHT22;24692;45.642;13.806;2022-09-06T05:17:49;20.30;99.90
36444;DHT22;24692;45.642;13.806;2022-09-06T05:20:15;20.30;99.90
36444;DHT22;24692;45.642;13.806;2022-09-06T05:22:41;20.30;99.90
36444;DHT22;24692;45.642;13.806;2022-09-06T05:25:07;20.30;99.90
36444;DHT22;24692;45.642;13.806;2022-09-06T05:27:33;20.40;99.90
36444;DHT22;24692;45.642;13.806;2022-09-06T05:29:59;20.50;99.90
36444;DHT22;24692;45.642;13.806;2022-09-06T05:32:24;20.60;99.90
36444;DHT22;24692;45.642;13.806;2022-09-06T05:34:50;20.70;99.90
36444;DHT22;24692;45.642;13.806;2022-09-06T05:37:16;20.70;99.90
36444;DHT22;24692;45.642;13.806;2022-09-06T05:39:41;20.70;99.90
36444;DHT22;24692;45.642;13.806;2022-09-06T05:42:07;20.70;99.90
36444;DHT22;24692;45.642;13.806;2022-09-06T05:44:34;20.80;99.90
36444;DHT22;24692;45.642;13.806;2022-09-06T05:47:00;20.90;99.90
36444;DHT22;24692;45.642;13.806;2022-09-06T05:49:28;21.10;99.90
36444;DHT22;24692;45.642;13.806;2022-09-06T05:51:54;21.20;99.90
36444;DHT22;24692;45.642;13.806;2022-09-06T05:54:20;21.30;99.90
36444;DHT22;24692;45.642;13.806;2022-09-06T05:56:46;21.40;99.90
36444;DHT22;24692;45.642;13.806;2022-09-06T05:59:12;21.60;99.90
36444;DHT22;24692;45.642;13.806;2022-09-06T06:01:54;21.70;99.90
36444;DHT22;24692;45.642;13.806;2022-09-06T06:04:20;21.90;99.90
36444;DHT22;24692;45.642;13.806;2022-09-06T06:06:46;22.10;99.90
36444;DHT22;24692;45.642;13.806;2022-09-06T06:09:13;22.20;99.90
36444;DHT22;24692;45.642;13.806;2022-09-06T06:11:39;22.30;99.90
36444;DHT22;24692;45.642;13.806;2022-09-06T06:14:06;22.40;99.90
36444;DHT22;24692;45.642;13.806;2022-09-06T06:16:32;22.50;99.90
36444;DHT22;24692;45.642;13.806;2022-09-06T06:18:57;22.60;99.90
36444;DHT22;24692;45.642;13.806;2022-09-06T06:21:26;22.80;99.90
36444;DHT22;24692;45.642;13.806;2022-09-06T06:23:57;22.90;99.90
36444;DHT22;24692;45.642;13.806;2022-09-06T06:26:24;23.00;99.90
36444;DHT22;24692;45.642;13.806;2022-09-06T06:28:50;23.20;99.90
36444;DHT22;24692;45.642;13.806;2022-09-06T06:31:16;23.30;99.90
36444;DHT22;24692;45.642;13.806;2022-09-06T06:33:42;23.30;99.90
36444;DHT22;24692;45.642;13.806;2022-09-06T06:38:43;23.60;99.90
36444;DHT22;24692;45.642;13.806;2022-09-06T06:41:10;23.70;99.90
36444;DHT22;24692;45.642;13.806;2022-09-06T06:43:37;23.70;99.90
36444;DHT22;24692;45.642;13.806;2022-09-06T06:46:08;23.90;99.90
36444;DHT22;24692;45.642;13.806;2022-09-06T06:48:34;24.10;99.90
36444;DHT22;24692;45.642;13.806;2022-09-06T06:51:00;24.20;99.90
36444;DHT22;24692;45.642;13.806;2022-09-06T06:53:26;24.40;99.90
36444;DHT22;24692;45.642;13.806;2022-09-06T06:55:52;24.50;99.90
36444;DHT22;24692;45.642;13.806;2022-09-06T06:58:18;24.60;99.90
36444;DHT22;24692;45.642;13.806;2022-09-06T07:00:44;24.80;99.90
36444;DHT22;24692;45.642;13.806;2022-09-06T07:03:11;24.90;99.90
36444;DHT22;24692;45.642;13.806;2022-09-06T07:05:37;25.00;99.90
36444;DHT22;24692;45.642;13.806;2022-09-06T07:08:05;25.10;99.90
36444;DHT22;24692;45.642;13.806;2022-09-06T07:10:32;25.20;99.90
36444;DHT22;24692;45.642;13.806;2022-09-06T07:12:58;25.10;99.90
36444;DHT22;24692;45.642;13.806;2022-09-06T07:15:23;25.30;99.90
36444;DHT22;24692;45.642;13.806;2022-09-06T07:17:49;25.40;99.90
36444;DHT22;24692;45.642;13.806;2022-09-06T07:20:15;25.50;99.90
36444;DHT22;24692;45.642;13.806;2022-09-06T07:22:41;25.60;99.90
36444;DHT22;24692;45.642;13.806;2022-09-06T07:25:08;25.60;99.90
36444;DHT22;24692;45.642;13.806;2022-09-06T07:27:36;25.60;99.90
36444;DHT22;24692;45.642;13.806;2022-09-06T07:30:01;25.60;99.90
36444;DHT22;24692;45.642;13.806;2022-09-06T07:32:27;25.80;99.90
36444;DHT22;24692;45.642;13.806;2022-09-06T07:34:53;26.10;99.90
36444;DHT22;24692;45.642;13.806;2022-09-06T07:37:18;26.10;99.90
36444;DHT22;24692;45.642;13.806;2022-09-06T07:39:44;26.90;99.90
36444;DHT22;24692;45.642;13.806;2022-09-06T07:42:09;27.90;99.90
36444;DHT22;24692;45.642;13.806;2022-09-06T07:44:35;29.50;99.90
36444;DHT22;24692;45.642;13.806;2022-09-06T07:47:01;30.70;99.90
36444;DHT22;24692;45.642;13.806;2022-09-06T07:49:33;31.40;99.90
36444;DHT22;24692;45.642;13.806;2022-09-06T07:51:59;32.60;99.90
36444;DHT22;24692;45.642;13.806;2022-09-06T07:54:25;33.20;99.90
36444;DHT22;24692;45.642;13.806;2022-09-06T07:56:50;33.20;99.90
36444;DHT22;24692;45.642;13.806;2022-09-06T07:59:16;33.90;99.90
36444;DHT22;24692;45.642;13.806;2022-09-06T08:01:42;34.00;99.90
36444;DHT22;24692;45.642;13.806;2022-09-06T08:04:08;35.00;99.90
36444;DHT22;24692;45.642;13.806;2022-09-06T08:06:37;35.00;99.90
36444;DHT22;24692;45.642;13.806;2022-09-06T08:09:08;33.70;99.90
36444;DHT22;24692;45.642;13.806;2022-09-06T08:11:36;34.10;99.90
36444;DHT22;24692;45.642;13.806;2022-09-06T08:14:04;33.90;99.90
36444;DHT22;24692;45.642;13.806;2022-09-06T08:16:31;34.80;99.90
36444;DHT22;24692;45.642;13.806;2022-09-06T08:18:59;34.70;99.90
36444;DHT22;24692;45.642;13.806;2022-09-06T08:21:27;34.60;99.90
36444;DHT22;24692;45.642;13.806;2022-09-06T08:23:58;35.20;99.90
36444;DHT22;24692;45.642;13.806;2022-09-06T08:26:25;34.20;99.90
36444;DHT22;24692;45.642;13.806;2022-09-06T08:28:53;33.80;99.90
36444;DHT22;24692;45.642;13.806;2022-09-06T08:31:20;34.00;99.90
36444;DHT22;24692;45.642;13.806;2022-09-06T08:33:46;33.70;99.90
36444;DHT22;24692;45.642;13.806;2022-09-06T08:36:12;34.10;99.90
36444;DHT22;24692;45.642;13.806;2022-09-06T08:38:38;34.70;99.90
36444;DHT22;24692;45.642;13.806;2022-09-06T08:43:56;34.90;99.90
36444;DHT22;24692;45.642;13.806;2022-09-06T08:46:33;35.50;99.90
36444;DHT22;24692;45.642;13.806;2022-09-06T08:49:02;35.80;99.90
36444;DHT22;24692;45.642;13.806;2022-09-06T08:54:34;36.20;99.90
36444;DHT22;24692;45.642;13.806;2022-09-06T08:59:37;36.50;99.90
36444;DHT22;24692;45.642;13.806;2022-09-06T09:02:11;36.00;99.90
36444;DHT22;24692;45.642;13.806;2022-09-06T09:04:46;33.90;99.90
36444;DHT22;24692;45.642;13.806;2022-09-06T09:07:36;34.20;99.90
36444;DHT22;24692;45.642;13.806;2022-09-06T09:10:11;34.50;99.90
36444;DHT22;24692;45.642;13.806;2022-09-06T09:12:45;35.40;99.90
36444;DHT22;24692;45.642;13.806;2022-09-06T09:15:13;35.30;99.90
36444;DHT22;24692;45.642;13.806;2022-09-06T09:17:40;36.00;99.90
36444;DHT22;24692;45.642;13.806;2022-09-06T09:20:06;36.20;99.90
36444;DHT22;24692;45.642;13.806;2022-09-06T09:22:37;35.70;99.90
36444;DHT22;24692;45.642;13.806;2022-09-06T09:25:07;34.00;99.90
36444;DHT22;24692;45.642;13.806;2022-09-06T09:27:35;34.50;99.90
36444;DHT22;24692;45.642;13.806;2022-09-06T09:30:04;35.10;99.90
36444;DHT22;24692;45.642;13.806;2022-09-06T09:32:36;34.30;99.90
36444;DHT22;24692;45.642;13.806;2022-09-06T09:38:05;35.60;99.90
36444;DHT22;24692;45.642;13.806;2022-09-06T09:40:35;36.10;99.90
36444;DHT22;24692;45.642;13.806;2022-09-06T09:43:12;36.40;99.90
36444;DHT22;24692;45.642;13.806;2022-09-06T09:45:39;36.00;99.90
36444;DHT22;24692;45.642;13.806;2022-09-06T09:48:22;35.80;99.90
36444;DHT22;24692;45.642;13.806;2022-09-06T09:50:48;36.30;99.90
36444;DHT22;24692;45.642;13.806;2022-09-06T09:53:17;36.50;99.90
36444;DHT22;24692;45.642;13.806;2022-09-06T09:55:43;37.50;99.90
36444;DHT22;24692;45.642;13.806;2022-09-06T09:58:32;37.10;99.90
36444;DHT22;24692;45.642;13.806;2022-09-06T10:01:17;36.10;99.90
36444;DHT22;24692;45.642;13.806;2022-09-06T10:03:43;36.00;99.90
36444;DHT22;24692;45.642;13.806;2022-09-06T10:06:11;35.80;99.50
36444;DHT22;24692;45.642;13.806;2022-09-06T10:08:40;36.00;99.60
36444;DHT22;24692;45.642;13.806;2022-09-06T10:11:11;35.90;99.90
36444;DHT22;24692;45.642;13.806;2022-09-06T10:13:37;36.70;99.90
36444;DHT22;24692;45.642;13.806;2022-09-06T10:16:03;36.90;99.90
36444;DHT22;24692;45.642;13.806;2022-09-06T10:18:47;36.80;99.90
36444;DHT22;24692;45.642;13.806;2022-09-06T10:21:17;36.90;99.90
36444;DHT22;24692;45.642;13.806;2022-09-06T10:26:41;36.60;99.80
36444;DHT22;24692;45.642;13.806;2022-09-06T10:29:12;36.60;99.90
36444;DHT22;24692;45.642;13.806;2022-09-06T10:31:41;36.10;99.90
36444;DHT22;24692;45.642;13.806;2022-09-06T10:37:14;35.10;99.90
36444;DHT22;24692;45.642;13.806;2022-09-06T10:42:47;35.20;99.90
36444;DHT22;24692;45.642;13.806;2022-09-06T10:45:42;35.20;99.90
36444;DHT22;24692;45.642;13.806;2022-09-06T10:48:28;35.00;99.90
36444;DHT22;24692;45.642;13.806;2022-09-06T10:51:03;34.80;99.90
36444;DHT22;24692;45.642;13.806;2022-09-06T10:53:49;34.60;99.90
36444;DHT22;24692;45.642;13.806;2022-09-06T11:04:48;33.70;99.90
36444;DHT22;24692;45.642;13.806;2022-09-06T11:07:26;34.00;99.90
36444;DHT22;24692;45.642;13.806;2022-09-06T11:15:34;34.70;99.90
36444;DHT22;24692;45.642;13.806;2022-09-06T11:27:09;34.80;99.90
36444;DHT22;24692;45.642;13.806;2022-09-06T11:29:40;34.50;99.90
36444;DHT22;24692;45.642;13.806;2022-09-06T11:32:30;34.40;99.90
36444;DHT22;24692;45.642;13.806;2022-09-06T11:35:02;34.10;99.90
36444;DHT22;24692;45.642;13.806;2022-09-06T11:37:37;34.40;99.90
36444;DHT22;24692;45.642;13.806;2022-09-06T11:40:23;34.50;99.90
36444;DHT22;24692;45.642;13.806;2022-09-06T11:45:37;35.00;99.90
36444;DHT22;24692;45.642;13.806;2022-09-06T11:53:29;35.10;99.90
36444;DHT22;24692;45.642;13.806;2022-09-06T11:58:52;34.00;99.90
36444;DHT22;24692;45.642;13.806;2022-09-06T12:08:45;35.60;99.90
36444;DHT22;24692;45.642;13.806;2022-09-06T12:11:43;36.20;99.60
36444;DHT22;24692;45.642;13.806;2022-09-06T12:14:35;35.60;99.90
36444;DHT22;24692;45.642;13.806;2022-09-06T12:25:00;35.60;99.90
36444;DHT22;24692;45.642;13.806;2022-09-06T12:27:31;35.70;99.70
36444;DHT22;24692;45.642;13.806;2022-09-06T12:29:59;35.50;99.40
36444;DHT22;24692;45.642;13.806;2022-09-06T12:32:30;36.40;99.30
36444;DHT22;24692;45.642;13.806;2022-09-06T12:34:56;36.40;99.70
36444;DHT22;24692;45.642;13.806;2022-09-06T12:37:31;35.50;99.30
36444;DHT22;24692;45.642;13.806;2022-09-06T12:39:58;35.80;99.40
36444;DHT22;24692;45.642;13.806;2022-09-06T12:42:24;36.70;99.20
36444;DHT22;24692;45.642;13.806;2022-09-06T12:44:52;36.40;98.40
36444;DHT22;24692;45.642;13.806;2022-09-06T12:47:27;36.40;98.70
36444;DHT22;24692;45.642;13.806;2022-09-06T12:50:16;36.70;97.60
36444;DHT22;24692;45.642;13.806;2022-09-06T12:52:51;36.60;98.50
36444;DHT22;24692;45.642;13.806;2022-09-06T12:55:25;36.30;98.50
36444;DHT22;24692;45.642;13.806;2022-09-06T12:57:54;36.70;98.30
36444;DHT22;24692;45.642;13.806;2022-09-06T13:00:21;36.20;98.30
36444;DHT22;24692;45.642;13.806;2022-09-06T13:03:22;34.90;98.90
36444;DHT22;24692;45.642;13.806;2022-09-06T13:05:49;35.10;99.50
36444;DHT22;24692;45.642;13.806;2022-09-06T13:08:35;35.60;99.50
36444;DHT22;24692;45.642;13.806;2022-09-06T13:11:02;35.20;99.60
36444;DHT22;24692;45.642;13.806;2022-09-06T13:13:29;35.20;99.60
36444;DHT22;24692;45.642;13.806;2022-09-06T13:15:55;35.40;99.70
36444;DHT22;24692;45.642;13.806;2022-09-06T13:18:22;35.50;99.90
36444;DHT22;24692;45.642;13.806;2022-09-06T13:23:28;35.40;98.80
36444;DHT22;24692;45.642;13.806;2022-09-06T13:25:54;35.60;98.70
36444;DHT22;24692;45.642;13.806;2022-09-06T13:28:28;35.20;98.30
36444;DHT22;24692;45.642;13.806;2022-09-06T13:31:06;34.90;98.70
36444;DHT22;24692;45.642;13.806;2022-09-06T13:33:33;34.80;99.00
36444;DHT22;24692;45.642;13.806;2022-09-06T13:38:44;34.90;99.40
36444;DHT22;24692;45.642;13.806;2022-09-06T13:44:01;34.30;99.90
36444;DHT22;24692;45.642;13.806;2022-09-06T13:46:30;34.90;99.90
36444;DHT22;24692;45.642;13.806;2022-09-06T13:48:56;35.10;99.90
36444;DHT22;24692;45.642;13.806;2022-09-06T13:51:23;34.70;98.60
36444;DHT22;24692;45.642;13.806;2022-09-06T13:53:49;34.40;98.70
36444;DHT22;24692;45.642;13.806;2022-09-06T13:56:15;34.80;98.80
36444;DHT22;24692;45.642;13.806;2022-09-06T13:58:41;34.40;99.00
36444;DHT22;24692;45.642;13.806;2022-09-06T14:01:09;34.50;99.00
36444;DHT22;24692;45.642;13.806;2022-09-06T14:03:38;34.80;98.50
36444;DHT22;24692;45.642;13.806;2022-09-06T14:06:04;35.40;98.80
36444;DHT22;24692;45.642;13.806;2022-09-06T14:08:30;35.60;98.60
36444;DHT22;24692;45.642;13.806;2022-09-06T14:10:56;36.10;97.30
36444;DHT22;24692;45.642;13.806;2022-09-06T14:13:22;35.60;98.30
36444;DHT22;24692;45.642;13.806;2022-09-06T14:15:48;36.00;98.20
36444;DHT22;24692;45.642;13.806;2022-09-06T14:18:15;34.80;98.30
36444;DHT22;24692;45.642;13.806;2022-09-06T14:20:41;35.20;99.00
36444;DHT22;24692;45.642;13.806;2022-09-06T14:23:08;34.80;99.20
36444;DHT22;24692;45.642;13.806;2022-09-06T14:25:34;34.90;99.20
36444;DHT22;24692;45.642;13.806;2022-09-06T14:28:02;34.80;99.50
36444;DHT22;24692;45.642;13.806;2022-09-06T14:30:29;35.20;99.80
36444;DHT22;24692;45.642;13.806;2022-09-06T14:32:55;35.20;99.90
36444;DHT22;24692;45.642;13.806;2022-09-06T14:35:20;34.30;99.90
36444;DHT22;24692;45.642;13.806;2022-09-06T14:37:46;34.20;99.90
36444;DHT22;24692;45.642;13.806;2022-09-06T14:40:11;34.50;99.90
36444;DHT22;24692;45.642;13.806;2022-09-06T14:42:37;35.00;99.90
36444;DHT22;24692;45.642;13.806;2022-09-06T14:45:03;35.00;99.90
36444;DHT22;24692;45.642;13.806;2022-09-06T14:47:29;34.20;99.90
36444;DHT22;24692;45.642;13.806;2022-09-06T14:49:56;34.40;99.90
36444;DHT22;24692;45.642;13.806;2022-09-06T14:52:21;34.50;99.90
36444;DHT22;24692;45.642;13.806;2022-09-06T14:54:47;34.40;99.90
36444;DHT22;24692;45.642;13.806;2022-09-06T14:57:13;34.10;99.90
36444;DHT22;24692;45.642;13.806;2022-09-06T14:59:39;34.10;99.90
36444;DHT22;24692;45.642;13.806;2022-09-06T15:02:06;34.00;99.90
36444;DHT22;24692;45.642;13.806;2022-09-06T15:04:31;34.50;99.90
36444;DHT22;24692;45.642;13.806;2022-09-06T15:06:57;33.90;99.90
36444;DHT22;24692;45.642;13.806;2022-09-06T15:09:24;33.50;99.90
36444;DHT22;24692;45.642;13.806;2022-09-06T15:11:50;33.30;99.90
36444;DHT22;24692;45.642;13.806;2022-09-06T15:14:19;33.40;99.90
36444;DHT22;24692;45.642;13.806;2022-09-06T15:16:47;33.60;99.90
36444;DHT22;24692;45.642;13.806;2022-09-06T15:19:15;33.70;99.90
36444;DHT22;24692;45.642;13.806;2022-09-06T15:21:41;34.00;99.90
36444;DHT22;24692;45.642;13.806;2022-09-06T15:24:07;34.40;99.90
36444;DHT22;24692;45.642;13.806;2022-09-06T15:26:33;34.70;99.90
36444;DHT22;24692;45.642;13.806;2022-09-06T15:29:02;34.90;99.90
36444;DHT22;24692;45.642;13.806;2022-09-06T15:31:28;34.40;99.90
36444;DHT22;24692;45.642;13.806;2022-09-06T15:33:54;34.10;99.90
36444;DHT22;24692;45.642;13.806;2022-09-06T15:36:19;33.30;99.90
36444;DHT22;24692;45.642;13.806;2022-09-06T15:38:49;33.80;99.90
36444;DHT22;24692;45.642;13.806;2022-09-06T15:41:17;33.40;99.90
36444;DHT22;24692;45.642;13.806;2022-09-06T15:43:47;33.00;99.90
36444;DHT22;24692;45.642;13.806;2022-09-06T15:46:15;32.90;99.90
36444;DHT22;24692;45.642;13.806;2022-09-06T15:48:44;32.80;99.90
36444;DHT22;24692;45.642;13.806;2022-09-06T15:51:12;32.80;99.90
36444;DHT22;24692;45.642;13.806;2022-09-06T15:53:38;32.90;99.90
36444;DHT22;24692;45.642;13.806;2022-09-06T15:56:06;32.90;99.90
36444;DHT22;24692;45.642;13.806;2022-09-06T15:58:32;32.80;99.90
36444;DHT22;24692;45.642;13.806;2022-09-06T16:03:31;33.00;99.90
36444;DHT22;24692;45.642;13.806;2022-09-06T16:06:01;32.10;99.90
36444;DHT22;24692;45.642;13.806;2022-09-06T16:08:27;31.70;99.90
36444;DHT22;24692;45.642;13.806;2022-09-06T16:10:53;32.20;99.90
36444;DHT22;24692;45.642;13.806;2022-09-06T16:13:19;32.40;99.90
36444;DHT22;24692;45.642;13.806;2022-09-06T16:15:55;32.50;99.90
36444;DHT22;24692;45.642;13.806;2022-09-06T16:18:21;32.50;99.90
36444;DHT22;24692;45.642;13.806;2022-09-06T16:20:48;31.80;99.90
36444;DHT22;24692;45.642;13.806;2022-09-06T16:23:13;31.90;99.90
36444;DHT22;24692;45.642;13.806;2022-09-06T16:25:40;31.60;99.90
36444;DHT22;24692;45.642;13.806;2022-09-06T16:28:06;31.50;99.90
36444;DHT22;24692;45.642;13.806;2022-09-06T16:30:32;31.60;99.90
36444;DHT22;24692;45.642;13.806;2022-09-06T16:32:58;31.00;99.90
36444;DHT22;24692;45.642;13.806;2022-09-06T16:35:23;30.70;99.90
36444;DHT22;24692;45.642;13.806;2022-09-06T16:37:49;30.70;99.90
36444;DHT22;24692;45.642;13.806;2022-09-06T16:40:14;30.60;99.90
36444;DHT22;24692;45.642;13.806;2022-09-06T16:42:41;30.50;99.90
36444;DHT22;24692;45.642;13.806;2022-09-06T16:45:07;30.50;99.90
36444;DHT22;24692;45.642;13.806;2022-09-06T16:47:34;30.50;99.90
36444;DHT22;24692;45.642;13.806;2022-09-06T16:50:00;30.00;99.90
36444;DHT22;24692;45.642;13.806;2022-09-06T16:52:25;29.60;99.90
36444;DHT22;24692;45.642;13.806;2022-09-06T16:54:51;29.60;99.90
36444;DHT22;24692;45.642;13.806;2022-09-06T16:57:17;29.40;99.90
36444;DHT22;24692;45.642;13.806;2022-09-06T16:59:43;29.20;99.90
36444;DHT22;24692;45.642;13.806;2022-09-06T17:02:09;28.90;99.90
36444;DHT22;24692;45.642;13.806;2022-09-06T17:04:35;28.60;99.90
36444;DHT22;24692;45.642;13.806;2022-09-06T17:07:01;28.60;99.90
36444;DHT22;24692;45.642;13.806;2022-09-06T17:09:26;28.60;99.90
36444;DHT22;24692;45.642;13.806;2022-09-06T17:11:52;28.40;99.90
36444;DHT22;24692;45.642;13.806;2022-09-06T17:14:18;28.20;99.90
36444;DHT22;24692;45.642;13.806;2022-09-06T17:16:43;28.00;99.90
36444;DHT22;24692;45.642;13.806;2022-09-06T17:19:27;28.00;99.90
36444;DHT22;24692;45.642;13.806;2022-09-06T17:21:54;27.80;99.90
36444;DHT22;24692;45.642;13.806;2022-09-06T17:24:19;27.70;99.90